sensor_id;sensor_type;location;lat;lon;timestamp;P1;durP1;ratioP1;P2;durP2;ratioP2
8312;SDS011;4194;43.408;24.626;2023-12-14T00:01:24;50.33;;;32.13;;
8312;SDS011;4194;43.408;24.626;2023-12-14T00:03:50;50.80;;;32.83;;
8312;SDS011;4194;43.408;24.626;2023-12-14T00:06:15;48.50;;;32.67;;
8312;SDS011;4194;43.408;24.626;2023-12-14T00:08:41;49.53;;;31.67;;
8312;SDS011;4194;43.408;24.626;2023-12-14T00:11:07;51.90;;;32.43;;
8312;SDS011;4194;43.408;24.626;2023-12-14T00:13:34;50.83;;;32.57;;
8312;SDS011;4194;43.408;24.626;2023-12-14T00:16:01;58.43;;;34.27;;
8312;SDS011;4194;43.408;24.626;2023-12-14T00:18:27;50.63;;;33.23;;
8312;SDS011;4194;43.408;24.626;2023-12-14T00:20:53;55.80;;;34.50;;
8312;SDS011;4194;43.408;24.626;2023-12-14T00:23:19;57.77;;;37.20;;
8312;SDS011;4194;43.408;24.626;2023-12-14T00:25:45;74.93;;;51.90;;
8312;SDS011;4194;43.408;24.626;2023-12-14T00:28:11;74.50;;;52.70;;
8312;SDS011;4194;43.408;24.626;2023-12-14T00:30:37;68.97;;;49.07;;
8312;SDS011;4194;43.408;24.626;2023-12-14T00:33:03;66.97;;;45.43;;
8312;SDS011;4194;43.408;24.626;2023-12-14T00:35:28;69.70;;;46.50;;
8312;SDS011;4194;43.408;24.626;2023-12-14T00:37:54;60.03;;;41.63;;
8312;SDS011;4194;43.408;24.626;2023-12-14T00:40:20;64.70;;;41.33;;
8312;SDS011;4194;43.408;24.626;2023-12-14T00:42:45;61.53;;;37.53;;
8312;SDS011;4194;43.408;24.626;2023-12-14T00:45:11;61.33;;;38.40;;
8312;SDS011;4194;43.408;24.626;2023-12-14T00:47:37;69.30;;;42.30;;
8312;SDS011;4194;43.408;24.626;2023-12-14T00:50:03;66.53;;;41.37;;
8312;SDS011;4194;43.408;24.626;2023-12-14T00:52:29;73.87;;;42.80;;
8312;SDS011;4194;43.408;24.626;2023-12-14T00:54:55;58.13;;;38.77;;
8312;SDS011;4194;43.408;24.626;2023-12-14T00:57:21;47.13;;;30.17;;
8312;SDS011;4194;43.408;24.626;2023-12-14T00:59:46;48.23;;;27.70;;
8312;SDS011;4194;43.408;24.626;2023-12-14T01:02:12;43.13;;;27.63;;
8312;SDS011;4194;43.408;24.626;2023-12-14T01:04:38;50.80;;;29.77;;
8312;SDS011;4194;43.408;24.626;2023-12-14T01:07:04;48.73;;;30.47;;
8312;SDS011;4194;43.408;24.626;2023-12-14T01:09:30;50.97;;;28.23;;
8312;SDS011;4194;43.408;24.626;2023-12-14T01:12:00;44.97;;;27.63;;
8312;SDS011;4194;43.408;24.626;2023-12-14T01:14:25;46.67;;;28.57;;
8312;SDS011;4194;43.408;24.626;2023-12-14T01:16:51;54.63;;;28.40;;
8312;SDS011;4194;43.408;24.626;2023-12-14T01:19:17;45.63;;;29.03;;
8312;SDS011;4194;43.408;24.626;2023-12-14T01:21:42;47.83;;;30.13;;
8312;SDS011;4194;43.408;24.626;2023-12-14T01:24:08;51.37;;;31.50;;
8312;SDS011;4194;43.408;24.626;2023-12-14T01:26:34;53.63;;;31.20;;
8312;SDS011;4194;43.408;24.626;2023-12-14T01:28:59;46.00;;;30.90;;
8312;SDS011;4194;43.408;24.626;2023-12-14T01:31:26;49.00;;;31.03;;
8312;SDS011;4194;43.408;24.626;2023-12-14T01:33:52;55.30;;;35.87;;
8312;SDS011;4194;43.408;24.626;2023-12-14T01:36:21;56.97;;;35.57;;
8312;SDS011;4194;43.408;24.626;2023-12-14T01:38:48;60.10;;;34.63;;
8312;SDS011;4194;43.408;24.626;2023-12-14T01:41:14;50.90;;;34.03;;
8312;SDS011;4194;43.408;24.626;2023-12-14T01:43:40;52.13;;;33.73;;
8312;SDS011;4194;43.408;24.626;2023-12-14T01:46:05;49.33;;;33.80;;
8312;SDS011;4194;43.408;24.626;2023-12-14T01:48:31;54.00;;;33.43;;
8312;SDS011;4194;43.408;24.626;2023-12-14T01:50:57;50.33;;;31.33;;
8312;SDS011;4194;43.408;24.626;2023-12-14T01:53:23;52.90;;;33.60;;
8312;SDS011;4194;43.408;24.626;2023-12-14T01:55:48;49.53;;;32.10;;
8312;SDS011;4194;43.408;24.626;2023-12-14T01:58:14;51.83;;;34.30;;
8312;SDS011;4194;43.408;24.626;2023-12-14T02:03:34;54.37;;;34.57;;
8312;SDS011;4194;43.408;24.626;2023-12-14T02:06:00;53.20;;;34.17;;
8312;SDS011;4194;43.408;24.626;2023-12-14T02:08:27;54.83;;;34.60;;
8312;SDS011;4194;43.408;24.626;2023-12-14T02:10:54;58.03;;;36.10;;
8312;SDS011;4194;43.408;24.626;2023-12-14T02:13:19;56.90;;;36.80;;
8312;SDS011;4194;43.408;24.626;2023-12-14T02:15:45;54.17;;;37.00;;
8312;SDS011;4194;43.408;24.626;2023-12-14T02:18:12;59.93;;;38.37;;
8312;SDS011;4194;43.408;24.626;2023-12-14T02:20:37;60.40;;;37.77;;
8312;SDS011;4194;43.408;24.626;2023-12-14T02:23:03;63.20;;;39.07;;
8312;SDS011;4194;43.408;24.626;2023-12-14T02:25:29;57.27;;;39.07;;
8312;SDS011;4194;43.408;24.626;2023-12-14T02:27:54;56.20;;;38.47;;
8312;SDS011;4194;43.408;24.626;2023-12-14T02:30:20;64.13;;;39.37;;
8312;SDS011;4194;43.408;24.626;2023-12-14T02:32:46;63.40;;;41.67;;
8312;SDS011;4194;43.408;24.626;2023-12-14T02:35:11;60.70;;;40.03;;
8312;SDS011;4194;43.408;24.626;2023-12-14T02:37:37;59.73;;;38.83;;
8312;SDS011;4194;43.408;24.626;2023-12-14T02:40:05;61.07;;;39.73;;
8312;SDS011;4194;43.408;24.626;2023-12-14T02:42:32;62.97;;;38.90;;
8312;SDS011;4194;43.408;24.626;2023-12-14T02:44:58;60.23;;;38.77;;
8312;SDS011;4194;43.408;24.626;2023-12-14T02:47:24;61.47;;;38.77;;
8312;SDS011;4194;43.408;24.626;2023-12-14T02:49:49;60.67;;;40.87;;
8312;SDS011;4194;43.408;24.626;2023-12-14T02:52:15;56.03;;;38.17;;
8312;SDS011;4194;43.408;24.626;2023-12-14T02:54:41;58.37;;;39.83;;
8312;SDS011;4194;43.408;24.626;2023-12-14T02:57:07;62.70;;;42.83;;
8312;SDS011;4194;43.408;24.626;2023-12-14T02:59:32;54.77;;;37.80;;
8312;SDS011;4194;43.408;24.626;2023-12-14T03:01:58;61.80;;;39.03;;
8312;SDS011;4194;43.408;24.626;2023-12-14T03:04:25;54.57;;;37.63;;
8312;SDS011;4194;43.408;24.626;2023-12-14T03:06:50;57.33;;;36.83;;
8312;SDS011;4194;43.408;24.626;2023-12-14T03:09:16;55.87;;;37.87;;
8312;SDS011;4194;43.408;24.626;2023-12-14T03:11:44;53.40;;;37.10;;
8312;SDS011;4194;43.408;24.626;2023-12-14T03:14:09;57.37;;;38.53;;
8312;SDS011;4194;43.408;24.626;2023-12-14T03:16:36;56.60;;;39.07;;
8312;SDS011;4194;43.408;24.626;2023-12-14T03:19:01;55.63;;;39.77;;
8312;SDS011;4194;43.408;24.626;2023-12-14T03:21:28;55.33;;;38.47;;
8312;SDS011;4194;43.408;24.626;2023-12-14T03:23:54;59.00;;;39.27;;
8312;SDS011;4194;43.408;24.626;2023-12-14T03:26:20;55.20;;;37.37;;
8312;SDS011;4194;43.408;24.626;2023-12-14T03:28:45;52.67;;;36.97;;
8312;SDS011;4194;43.408;24.626;2023-12-14T03:31:11;53.87;;;37.13;;
8312;SDS011;4194;43.408;24.626;2023-12-14T03:33:38;55.23;;;39.47;;
8312;SDS011;4194;43.408;24.626;2023-12-14T03:36:04;52.90;;;37.53;;
8312;SDS011;4194;43.408;24.626;2023-12-14T03:38:31;53.83;;;38.13;;
8312;SDS011;4194;43.408;24.626;2023-12-14T03:40:57;62.40;;;37.70;;
8312;SDS011;4194;43.408;24.626;2023-12-14T03:43:22;52.57;;;37.33;;
8312;SDS011;4194;43.408;24.626;2023-12-14T03:45:48;61.40;;;38.90;;
8312;SDS011;4194;43.408;24.626;2023-12-14T03:48:14;49.90;;;37.43;;
8312;SDS011;4194;43.408;24.626;2023-12-14T03:50:40;57.30;;;39.27;;
8312;SDS011;4194;43.408;24.626;2023-12-14T03:53:05;56.30;;;40.07;;
8312;SDS011;4194;43.408;24.626;2023-12-14T03:55:31;60.57;;;39.07;;
8312;SDS011;4194;43.408;24.626;2023-12-14T03:57:57;57.27;;;38.53;;
8312;SDS011;4194;43.408;24.626;2023-12-14T04:00:23;56.33;;;39.70;;
8312;SDS011;4194;43.408;24.626;2023-12-14T04:02:49;60.00;;;38.20;;
8312;SDS011;4194;43.408;24.626;2023-12-14T04:05:15;63.27;;;38.33;;
8312;SDS011;4194;43.408;24.626;2023-12-14T04:07:41;59.63;;;39.30;;
8312;SDS011;4194;43.408;24.626;2023-12-14T04:10:07;58.93;;;38.90;;
8312;SDS011;4194;43.408;24.626;2023-12-14T04:12:37;66.43;;;37.50;;
8312;SDS011;4194;43.408;24.626;2023-12-14T04:15:04;62.37;;;35.90;;
8312;SDS011;4194;43.408;24.626;2023-12-14T04:17:31;63.07;;;36.30;;
8312;SDS011;4194;43.408;24.626;2023-12-14T04:19:56;60.50;;;36.30;;
8312;SDS011;4194;43.408;24.626;2023-12-14T04:22:22;59.63;;;36.27;;
8312;SDS011;4194;43.408;24.626;2023-12-14T04:24:48;62.60;;;38.27;;
8312;SDS011;4194;43.408;24.626;2023-12-14T04:27:15;59.17;;;38.37;;
8312;SDS011;4194;43.408;24.626;2023-12-14T04:29:40;57.40;;;38.03;;
8312;SDS011;4194;43.408;24.626;2023-12-14T04:32:06;59.70;;;41.73;;
8312;SDS011;4194;43.408;24.626;2023-12-14T04:34:32;58.80;;;40.53;;
8312;SDS011;4194;43.408;24.626;2023-12-14T04:36:58;58.20;;;40.13;;
8312;SDS011;4194;43.408;24.626;2023-12-14T04:39:24;64.30;;;39.70;;
8312;SDS011;4194;43.408;24.626;2023-12-14T04:41:50;62.20;;;39.77;;
8312;SDS011;4194;43.408;24.626;2023-12-14T04:44:17;57.40;;;39.97;;
8312;SDS011;4194;43.408;24.626;2023-12-14T04:46:43;63.63;;;39.43;;
8312;SDS011;4194;43.408;24.626;2023-12-14T04:49:09;65.13;;;41.40;;
8312;SDS011;4194;43.408;24.626;2023-12-14T04:51:35;67.63;;;40.17;;
8312;SDS011;4194;43.408;24.626;2023-12-14T04:54:01;69.00;;;41.37;;
8312;SDS011;4194;43.408;24.626;2023-12-14T04:56:27;69.97;;;41.03;;
8312;SDS011;4194;43.408;24.626;2023-12-14T04:58:53;73.83;;;42.27;;
8312;SDS011;4194;43.408;24.626;2023-12-14T05:01:19;66.07;;;42.53;;
8312;SDS011;4194;43.408;24.626;2023-12-14T05:03:44;62.90;;;42.70;;
8312;SDS011;4194;43.408;24.626;2023-12-14T05:06:10;58.40;;;38.17;;
8312;SDS011;4194;43.408;24.626;2023-12-14T05:08:36;47.17;;;34.00;;
8312;SDS011;4194;43.408;24.626;2023-12-14T05:11:02;51.67;;;34.17;;
8312;SDS011;4194;43.408;24.626;2023-12-14T05:13:28;51.17;;;31.93;;
8312;SDS011;4194;43.408;24.626;2023-12-14T05:15:54;47.93;;;33.17;;
8312;SDS011;4194;43.408;24.626;2023-12-14T05:18:20;48.60;;;31.73;;
8312;SDS011;4194;43.408;24.626;2023-12-14T05:20:46;39.97;;;28.27;;
8312;SDS011;4194;43.408;24.626;2023-12-14T05:23:12;46.10;;;29.60;;
8312;SDS011;4194;43.408;24.626;2023-12-14T05:25:37;43.37;;;28.37;;
8312;SDS011;4194;43.408;24.626;2023-12-14T05:28:03;43.97;;;27.73;;
8312;SDS011;4194;43.408;24.626;2023-12-14T05:30:29;47.77;;;29.67;;
8312;SDS011;4194;43.408;24.626;2023-12-14T05:32:55;45.87;;;28.13;;
8312;SDS011;4194;43.408;24.626;2023-12-14T05:35:21;49.63;;;28.03;;
8312;SDS011;4194;43.408;24.626;2023-12-14T05:37:46;57.23;;;28.23;;
8312;SDS011;4194;43.408;24.626;2023-12-14T05:40:12;84.17;;;31.13;;
8312;SDS011;4194;43.408;24.626;2023-12-14T05:42:38;82.67;;;30.40;;
8312;SDS011;4194;43.408;24.626;2023-12-14T05:45:05;76.93;;;30.47;;
8312;SDS011;4194;43.408;24.626;2023-12-14T05:47:31;139.37;;;33.37;;
8312;SDS011;4194;43.408;24.626;2023-12-14T05:49:58;142.93;;;34.33;;
8312;SDS011;4194;43.408;24.626;2023-12-14T05:52:24;154.87;;;34.73;;
8312;SDS011;4194;43.408;24.626;2023-12-14T05:54:50;161.17;;;35.73;;
8312;SDS011;4194;43.408;24.626;2023-12-14T05:57:15;160.37;;;37.30;;
8312;SDS011;4194;43.408;24.626;2023-12-14T05:59:41;214.33;;;41.27;;
8312;SDS011;4194;43.408;24.626;2023-12-14T06:02:07;205.87;;;39.60;;
8312;SDS011;4194;43.408;24.626;2023-12-14T06:04:33;210.43;;;41.17;;
8312;SDS011;4194;43.408;24.626;2023-12-14T06:06:59;248.20;;;40.97;;
8312;SDS011;4194;43.408;24.626;2023-12-14T06:09:24;184.37;;;40.60;;
8312;SDS011;4194;43.408;24.626;2023-12-14T06:11:58;157.73;;;37.17;;
8312;SDS011;4194;43.408;24.626;2023-12-14T06:14:28;195.70;;;39.60;;
8312;SDS011;4194;43.408;24.626;2023-12-14T06:16:54;211.13;;;39.17;;
8312;SDS011;4194;43.408;24.626;2023-12-14T06:19:20;150.73;;;35.43;;
8312;SDS011;4194;43.408;24.626;2023-12-14T06:21:47;155.20;;;38.00;;
8312;SDS011;4194;43.408;24.626;2023-12-14T06:24:13;153.20;;;36.17;;
8312;SDS011;4194;43.408;24.626;2023-12-14T06:26:42;176.37;;;37.10;;
8312;SDS011;4194;43.408;24.626;2023-12-14T06:29:11;160.90;;;35.90;;
8312;SDS011;4194;43.408;24.626;2023-12-14T06:31:37;190.00;;;38.23;;
8312;SDS011;4194;43.408;24.626;2023-12-14T06:34:04;160.17;;;39.03;;
8312;SDS011;4194;43.408;24.626;2023-12-14T06:36:33;156.60;;;36.90;;
8312;SDS011;4194;43.408;24.626;2023-12-14T06:38:59;164.47;;;33.87;;
8312;SDS011;4194;43.408;24.626;2023-12-14T06:41:26;132.13;;;34.57;;
8312;SDS011;4194;43.408;24.626;2023-12-14T06:43:53;160.90;;;34.23;;
8312;SDS011;4194;43.408;24.626;2023-12-14T06:46:19;131.53;;;34.93;;
8312;SDS011;4194;43.408;24.626;2023-12-14T06:48:45;141.70;;;36.67;;
8312;SDS011;4194;43.408;24.626;2023-12-14T06:51:12;114.43;;;34.73;;
8312;SDS011;4194;43.408;24.626;2023-12-14T06:53:41;125.20;;;36.40;;
8312;SDS011;4194;43.408;24.626;2023-12-14T06:56:08;148.73;;;35.77;;
8312;SDS011;4194;43.408;24.626;2023-12-14T06:58:38;150.77;;;34.03;;
8312;SDS011;4194;43.408;24.626;2023-12-14T07:01:12;143.20;;;34.63;;
8312;SDS011;4194;43.408;24.626;2023-12-14T07:03:42;101.70;;;30.97;;
8312;SDS011;4194;43.408;24.626;2023-12-14T07:06:12;123.57;;;31.63;;
8312;SDS011;4194;43.408;24.626;2023-12-14T07:08:38;104.53;;;33.43;;
8312;SDS011;4194;43.408;24.626;2023-12-14T07:11:05;106.47;;;33.60;;
8312;SDS011;4194;43.408;24.626;2023-12-14T07:13:32;117.03;;;33.57;;
8312;SDS011;4194;43.408;24.626;2023-12-14T07:15:57;104.50;;;33.87;;
8312;SDS011;4194;43.408;24.626;2023-12-14T07:18:24;112.30;;;33.63;;
8312;SDS011;4194;43.408;24.626;2023-12-14T07:20:50;105.93;;;34.77;;
8312;SDS011;4194;43.408;24.626;2023-12-14T07:23:15;107.77;;;35.07;;
8312;SDS011;4194;43.408;24.626;2023-12-14T07:25:41;118.03;;;34.33;;
8312;SDS011;4194;43.408;24.626;2023-12-14T07:28:07;130.73;;;33.63;;
8312;SDS011;4194;43.408;24.626;2023-12-14T07:30:32;110.33;;;34.70;;
8312;SDS011;4194;43.408;24.626;2023-12-14T09:41:18;35.67;;;21.60;;
8312;SDS011;4194;43.408;24.626;2023-12-14T09:43:45;28.47;;;18.53;;
8312;SDS011;4194;43.408;24.626;2023-12-14T09:46:10;28.00;;;16.97;;
8312;SDS011;4194;43.408;24.626;2023-12-14T09:48:36;34.10;;;18.00;;
8312;SDS011;4194;43.408;24.626;2023-12-14T09:51:02;25.60;;;16.97;;
8312;SDS011;4194;43.408;24.626;2023-12-14T09:53:29;24.30;;;15.10;;
8312;SDS011;4194;43.408;24.626;2023-12-14T09:55:55;22.53;;;15.20;;
8312;SDS011;4194;43.408;24.626;2023-12-14T09:58:21;21.63;;;15.53;;
8312;SDS011;4194;43.408;24.626;2023-12-14T10:00:46;22.70;;;15.30;;
8312;SDS011;4194;43.408;24.626;2023-12-14T10:03:26;20.27;;;14.43;;
8312;SDS011;4194;43.408;24.626;2023-12-14T10:05:56;21.40;;;11.97;;
8312;SDS011;4194;43.408;24.626;2023-12-14T10:08:23;21.17;;;13.50;;
8312;SDS011;4194;43.408;24.626;2023-12-14T10:10:50;20.97;;;11.70;;
8312;SDS011;4194;43.408;24.626;2023-12-14T10:13:22;15.57;;;10.97;;
8312;SDS011;4194;43.408;24.626;2023-12-14T10:16:02;19.50;;;10.73;;
8312;SDS011;4194;43.408;24.626;2023-12-14T10:18:27;17.07;;;11.00;;
8312;SDS011;4194;43.408;24.626;2023-12-14T10:20:54;17.63;;;11.37;;
8312;SDS011;4194;43.408;24.626;2023-12-14T10:23:20;18.23;;;10.73;;
8312;SDS011;4194;43.408;24.626;2023-12-14T10:25:46;16.63;;;12.17;;
8312;SDS011;4194;43.408;24.626;2023-12-14T10:28:15;16.63;;;10.77;;
8312;SDS011;4194;43.408;24.626;2023-12-14T10:30:41;12.03;;;9.53;;
8312;SDS011;4194;43.408;24.626;2023-12-14T10:33:07;12.80;;;9.33;;
8312;SDS011;4194;43.408;24.626;2023-12-14T10:35:34;13.50;;;9.27;;
8312;SDS011;4194;43.408;24.626;2023-12-14T10:38:03;10.87;;;8.60;;
8312;SDS011;4194;43.408;24.626;2023-12-14T10:40:30;12.47;;;9.10;;
8312;SDS011;4194;43.408;24.626;2023-12-14T10:42:59;14.70;;;8.93;;
8312;SDS011;4194;43.408;24.626;2023-12-14T10:45:29;14.23;;;9.23;;
8312;SDS011;4194;43.408;24.626;2023-12-14T10:47:58;14.67;;;9.83;;
8312;SDS011;4194;43.408;24.626;2023-12-14T10:50:25;12.83;;;8.30;;
8312;SDS011;4194;43.408;24.626;2023-12-14T10:52:55;17.37;;;9.53;;
8312;SDS011;4194;43.408;24.626;2023-12-14T10:55:25;16.07;;;8.40;;
8312;SDS011;4194;43.408;24.626;2023-12-14T10:58:09;14.40;;;7.83;;
8312;SDS011;4194;43.408;24.626;2023-12-14T11:00:35;15.63;;;8.83;;
8312;SDS011;4194;43.408;24.626;2023-12-14T11:03:03;12.43;;;8.93;;
8312;SDS011;4194;43.408;24.626;2023-12-14T11:05:31;13.93;;;7.87;;
8312;SDS011;4194;43.408;24.626;2023-12-14T11:08:02;12.70;;;8.13;;
8312;SDS011;4194;43.408;24.626;2023-12-14T11:10:40;11.23;;;8.13;;
8312;SDS011;4194;43.408;24.626;2023-12-14T11:15:37;13.20;;;10.10;;
8312;SDS011;4194;43.408;24.626;2023-12-14T11:23:11;13.00;;;8.83;;
8312;SDS011;4194;43.408;24.626;2023-12-14T11:26:11;11.93;;;8.40;;
8312;SDS011;4194;43.408;24.626;2023-12-14T11:28:45;9.90;;;7.87;;
8312;SDS011;4194;43.408;24.626;2023-12-14T11:31:11;13.53;;;7.57;;
8312;SDS011;4194;43.408;24.626;2023-12-14T11:33:37;11.23;;;7.30;;
8312;SDS011;4194;43.408;24.626;2023-12-14T11:36:03;12.40;;;7.73;;
8312;SDS011;4194;43.408;24.626;2023-12-14T11:38:30;14.73;;;8.00;;
8312;SDS011;4194;43.408;24.626;2023-12-14T11:40:56;15.13;;;7.43;;
8312;SDS011;4194;43.408;24.626;2023-12-14T11:43:23;13.07;;;7.20;;
8312;SDS011;4194;43.408;24.626;2023-12-14T11:54:44;7.90;;;4.60;;
8312;SDS011;4194;43.408;24.626;2023-12-14T11:57:10;6.70;;;3.80;;
8312;SDS011;4194;43.408;24.626;2023-12-14T11:59:36;7.17;;;3.70;;
8312;SDS011;4194;43.408;24.626;2023-12-14T12:02:02;6.87;;;3.70;;
8312;SDS011;4194;43.408;24.626;2023-12-14T12:04:28;8.40;;;3.80;;
8312;SDS011;4194;43.408;24.626;2023-12-14T12:07:05;8.63;;;3.50;;
8312;SDS011;4194;43.408;24.626;2023-12-14T12:09:34;10.13;;;3.33;;
8312;SDS011;4194;43.408;24.626;2023-12-14T12:12:02;5.03;;;2.77;;
8312;SDS011;4194;43.408;24.626;2023-12-14T12:14:31;6.07;;;3.83;;
8312;SDS011;4194;43.408;24.626;2023-12-14T12:16:56;3.33;;;3.03;;
8312;SDS011;4194;43.408;24.626;2023-12-14T12:19:22;9.97;;;3.73;;
8312;SDS011;4194;43.408;24.626;2023-12-14T12:21:48;6.57;;;3.60;;
8312;SDS011;4194;43.408;24.626;2023-12-14T12:24:13;6.13;;;3.77;;
8312;SDS011;4194;43.408;24.626;2023-12-14T12:26:39;8.70;;;3.87;;
8312;SDS011;4194;43.408;24.626;2023-12-14T12:29:05;4.90;;;3.50;;
8312;SDS011;4194;43.408;24.626;2023-12-14T12:31:31;9.13;;;4.37;;
8312;SDS011;4194;43.408;24.626;2023-12-14T12:33:58;6.40;;;3.50;;
8312;SDS011;4194;43.408;24.626;2023-12-14T12:36:24;6.27;;;4.40;;
8312;SDS011;4194;43.408;24.626;2023-12-14T12:38:49;6.57;;;3.83;;
8312;SDS011;4194;43.408;24.626;2023-12-14T12:41:16;6.57;;;3.83;;
8312;SDS011;4194;43.408;24.626;2023-12-14T12:43:43;9.00;;;5.03;;
8312;SDS011;4194;43.408;24.626;2023-12-14T12:46:09;7.40;;;4.40;;
8312;SDS011;4194;43.408;24.626;2023-12-14T12:48:35;9.57;;;5.07;;
8312;SDS011;4194;43.408;24.626;2023-12-14T12:51:01;6.80;;;3.63;;
8312;SDS011;4194;43.408;24.626;2023-12-14T12:53:27;7.17;;;4.57;;
8312;SDS011;4194;43.408;24.626;2023-12-14T12:55:53;7.33;;;4.90;;
8312;SDS011;4194;43.408;24.626;2023-12-14T12:58:22;7.30;;;3.70;;
8312;SDS011;4194;43.408;24.626;2023-12-14T13:00:48;7.40;;;3.50;;
8312;SDS011;4194;43.408;24.626;2023-12-14T13:03:14;10.13;;;4.43;;
8312;SDS011;4194;43.408;24.626;2023-12-14T13:05:40;10.97;;;3.83;;
8312;SDS011;4194;43.408;24.626;2023-12-14T13:08:05;9.20;;;4.40;;
8312;SDS011;4194;43.408;24.626;2023-12-14T13:10:31;6.03;;;4.20;;
8312;SDS011;4194;43.408;24.626;2023-12-14T13:12:57;7.53;;;4.33;;
8312;SDS011;4194;43.408;24.626;2023-12-14T13:15:23;9.20;;;3.90;;
8312;SDS011;4194;43.408;24.626;2023-12-14T13:17:53;5.90;;;3.27;;
8312;SDS011;4194;43.408;24.626;2023-12-14T13:20:19;9.23;;;4.00;;
8312;SDS011;4194;43.408;24.626;2023-12-14T13:22:45;4.27;;;3.10;;
8312;SDS011;4194;43.408;24.626;2023-12-14T13:25:11;3.73;;;2.10;;
8312;SDS011;4194;43.408;24.626;2023-12-14T13:27:37;3.10;;;2.40;;
8312;SDS011;4194;43.408;24.626;2023-12-14T13:30:03;2.50;;;2.03;;
8312;SDS011;4194;43.408;24.626;2023-12-14T13:32:29;2.30;;;2.10;;
8312;SDS011;4194;43.408;24.626;2023-12-14T13:34:55;2.63;;;2.10;;
8312;SDS011;4194;43.408;24.626;2023-12-14T13:37:24;6.60;;;2.80;;
8312;SDS011;4194;43.408;24.626;2023-12-14T13:39:49;3.40;;;2.33;;
8312;SDS011;4194;43.408;24.626;2023-12-14T13:42:15;2.77;;;2.30;;
8312;SDS011;4194;43.408;24.626;2023-12-14T13:44:41;2.33;;;2.00;;
8312;SDS011;4194;43.408;24.626;2023-12-14T13:47:06;4.30;;;2.43;;
8312;SDS011;4194;43.408;24.626;2023-12-14T13:49:33;3.93;;;2.50;;
8312;SDS011;4194;43.408;24.626;2023-12-14T13:51:58;3.67;;;2.77;;
8312;SDS011;4194;43.408;24.626;2023-12-14T13:54:24;4.57;;;2.57;;
8312;SDS011;4194;43.408;24.626;2023-12-14T13:56:50;5.77;;;2.93;;
8312;SDS011;4194;43.408;24.626;2023-12-14T13:59:15;4.97;;;3.00;;
8312;SDS011;4194;43.408;24.626;2023-12-14T14:01:42;6.13;;;3.97;;
8312;SDS011;4194;43.408;24.626;2023-12-14T14:04:08;8.10;;;4.50;;
8312;SDS011;4194;43.408;24.626;2023-12-14T14:06:34;10.00;;;4.40;;
8312;SDS011;4194;43.408;24.626;2023-12-14T14:09:00;5.00;;;3.23;;
8312;SDS011;4194;43.408;24.626;2023-12-14T14:11:26;7.57;;;2.73;;
8312;SDS011;4194;43.408;24.626;2023-12-14T14:13:51;5.17;;;2.50;;
8312;SDS011;4194;43.408;24.626;2023-12-14T14:16:17;3.97;;;2.27;;
8312;SDS011;4194;43.408;24.626;2023-12-14T14:18:43;6.67;;;2.20;;
8312;SDS011;4194;43.408;24.626;2023-12-14T14:21:08;4.00;;;2.73;;
8312;SDS011;4194;43.408;24.626;2023-12-14T14:23:34;5.70;;;3.10;;
8312;SDS011;4194;43.408;24.626;2023-12-14T14:26:00;9.80;;;3.70;;
8312;SDS011;4194;43.408;24.626;2023-12-14T14:28:26;5.60;;;2.80;;
8312;SDS011;4194;43.408;24.626;2023-12-14T14:30:52;7.23;;;3.10;;
8312;SDS011;4194;43.408;24.626;2023-12-14T14:33:18;3.87;;;3.00;;
8312;SDS011;4194;43.408;24.626;2023-12-14T14:35:44;4.57;;;3.00;;
8312;SDS011;4194;43.408;24.626;2023-12-14T14:38:14;4.33;;;2.63;;
8312;SDS011;4194;43.408;24.626;2023-12-14T14:40:40;6.47;;;3.33;;
8312;SDS011;4194;43.408;24.626;2023-12-14T14:43:07;8.17;;;2.93;;
8312;SDS011;4194;43.408;24.626;2023-12-14T14:45:35;3.40;;;2.37;;
8312;SDS011;4194;43.408;24.626;2023-12-14T14:48:03;4.10;;;2.23;;
8312;SDS011;4194;43.408;24.626;2023-12-14T14:50:33;10.33;;;3.33;;
8312;SDS011;4194;43.408;24.626;2023-12-14T14:52:59;5.43;;;3.50;;
8312;SDS011;4194;43.408;24.626;2023-12-14T14:55:25;4.57;;;2.90;;
8312;SDS011;4194;43.408;24.626;2023-12-14T14:57:51;3.93;;;2.93;;
8312;SDS011;4194;43.408;24.626;2023-12-14T15:00:17;7.90;;;3.90;;
8312;SDS011;4194;43.408;24.626;2023-12-14T15:02:43;7.40;;;3.63;;
8312;SDS011;4194;43.408;24.626;2023-12-14T15:05:09;10.93;;;4.07;;
8312;SDS011;4194;43.408;24.626;2023-12-14T15:07:35;7.63;;;4.10;;
8312;SDS011;4194;43.408;24.626;2023-12-14T15:10:01;10.20;;;4.37;;
8312;SDS011;4194;43.408;24.626;2023-12-14T15:12:27;5.37;;;3.63;;
8312;SDS011;4194;43.408;24.626;2023-12-14T15:14:53;6.47;;;3.97;;
8312;SDS011;4194;43.408;24.626;2023-12-14T15:17:20;10.53;;;3.93;;
8312;SDS011;4194;43.408;24.626;2023-12-14T15:19:47;5.27;;;3.70;;
8312;SDS011;4194;43.408;24.626;2023-12-14T15:22:14;9.10;;;4.30;;
8312;SDS011;4194;43.408;24.626;2023-12-14T15:24:43;7.50;;;4.23;;
8312;SDS011;4194;43.408;24.626;2023-12-14T15:32:25;9.27;;;3.93;;
8312;SDS011;4194;43.408;24.626;2023-12-14T15:34:50;5.40;;;3.70;;
8312;SDS011;4194;43.408;24.626;2023-12-14T15:37:16;7.53;;;4.17;;
8312;SDS011;4194;43.408;24.626;2023-12-14T15:39:42;6.27;;;4.57;;
8312;SDS011;4194;43.408;24.626;2023-12-14T15:42:15;10.30;;;6.13;;
8312;SDS011;4194;43.408;24.626;2023-12-14T15:44:43;12.57;;;8.17;;
8312;SDS011;4194;43.408;24.626;2023-12-14T15:47:10;13.47;;;5.53;;
8312;SDS011;4194;43.408;24.626;2023-12-14T15:49:38;6.57;;;3.93;;
8312;SDS011;4194;43.408;24.626;2023-12-14T15:52:07;11.10;;;4.83;;
8312;SDS011;4194;43.408;24.626;2023-12-14T15:54:34;5.23;;;3.83;;
8312;SDS011;4194;43.408;24.626;2023-12-14T15:57:10;7.17;;;3.37;;
8312;SDS011;4194;43.408;24.626;2023-12-14T15:59:35;4.93;;;3.30;;
8312;SDS011;4194;43.408;24.626;2023-12-14T16:02:04;6.77;;;2.40;;
8312;SDS011;4194;43.408;24.626;2023-12-14T16:04:29;4.03;;;2.27;;
8312;SDS011;4194;43.408;24.626;2023-12-14T16:06:55;3.27;;;2.50;;
8312;SDS011;4194;43.408;24.626;2023-12-14T16:09:21;4.07;;;2.70;;
8312;SDS011;4194;43.408;24.626;2023-12-14T16:11:46;6.37;;;3.33;;
8312;SDS011;4194;43.408;24.626;2023-12-14T16:14:14;4.37;;;2.63;;
8312;SDS011;4194;43.408;24.626;2023-12-14T16:16:41;3.80;;;2.30;;
8312;SDS011;4194;43.408;24.626;2023-12-14T16:19:08;3.63;;;3.20;;
8312;SDS011;4194;43.408;24.626;2023-12-14T16:21:34;4.57;;;3.13;;
8312;SDS011;4194;43.408;24.626;2023-12-14T16:24:04;3.47;;;3.00;;
8312;SDS011;4194;43.408;24.626;2023-12-14T16:26:31;4.67;;;3.47;;
8312;SDS011;4194;43.408;24.626;2023-12-14T16:28:57;3.80;;;2.50;;
8312;SDS011;4194;43.408;24.626;2023-12-14T16:31:23;3.60;;;2.43;;
8312;SDS011;4194;43.408;24.626;2023-12-14T16:33:52;3.30;;;2.30;;
8312;SDS011;4194;43.408;24.626;2023-12-14T16:36:20;3.00;;;2.47;;
8312;SDS011;4194;43.408;24.626;2023-12-14T16:38:46;5.17;;;2.97;;
8312;SDS011;4194;43.408;24.626;2023-12-14T16:41:12;4.77;;;3.70;;
8312;SDS011;4194;43.408;24.626;2023-12-14T16:43:40;11.20;;;7.20;;
8312;SDS011;4194;43.408;24.626;2023-12-14T16:46:06;5.40;;;3.60;;
8312;SDS011;4194;43.408;24.626;2023-12-14T16:48:31;8.93;;;6.37;;
8312;SDS011;4194;43.408;24.626;2023-12-14T16:50:57;27.63;;;13.53;;
8312;SDS011;4194;43.408;24.626;2023-12-14T16:53:23;28.40;;;12.20;;
8312;SDS011;4194;43.408;24.626;2023-12-14T16:55:49;26.40;;;12.77;;
8312;SDS011;4194;43.408;24.626;2023-12-14T16:58:19;16.20;;;8.40;;
8312;SDS011;4194;43.408;24.626;2023-12-14T17:00:45;13.53;;;9.37;;
8312;SDS011;4194;43.408;24.626;2023-12-14T17:03:12;20.30;;;11.93;;
8312;SDS011;4194;43.408;24.626;2023-12-14T17:05:37;19.30;;;10.30;;
8312;SDS011;4194;43.408;24.626;2023-12-14T17:08:03;28.73;;;14.63;;
8312;SDS011;4194;43.408;24.626;2023-12-14T17:10:29;15.03;;;9.67;;
8312;SDS011;4194;43.408;24.626;2023-12-14T17:12:55;10.50;;;6.93;;